Time;durP1;ratioP1;P1;durP2;ratioP2;P2;SDS_P1;SDS_P2;PMS_P1;PMS_P2;Temp;Humidity;BMP_temperature;BMP_pressure;BME280_temperature;BME280_humidity;BME280_pressure;Samples;Min_cycle;Max_cycle;Signal;HPM_P1;HPM_P2
2022/02/15 00:01:49;;;;;;;10.70;7.73;;;4.20;99.90;;;;;;4987631;28;20452;-59
2022/02/15 00:04:15;;;;;;;12.77;7.80;;;4.20;99.90;;;;;;4987065;28;20424;-58
2022/02/15 00:06:41;;;;;;;10.50;6.80;;;4.20;99.90;;;;;;4989174;28;20201;-58
2022/02/15 00:09:07;;;;;;;10.53;7.83;;;4.20;99.90;;;;;;4986683;28;20342;-57
2022/02/15 00:11:33;;;;;;;13.40;8.00;;;4.20;99.90;;;;;;4987008;28;20428;-58
2022/02/15 00:13:59;;;;;;;14.00;8.90;;;4.30;99.90;;;;;;4988577;28;20185;-58
2022/02/15 00:16:25;;;;;;;14.97;9.50;;;4.20;99.90;;;;;;4997194;28;20432;-58
2022/02/15 00:18:50;;;;;;;14.73;8.10;;;4.20;99.90;;;;;;4986883;28;20658;-58
2022/02/15 00:21:16;;;;;;;12.40;8.80;;;4.20;99.90;;;;;;4980032;28;20208;-58
2022/02/15 00:23:42;;;;;;;16.83;9.60;;;4.20;99.90;;;;;;4983897;28;20243;-58
2022/02/15 00:26:08;;;;;;;14.90;8.73;;;4.20;99.90;;;;;;4989846;28;20189;-58
2022/02/15 00:28:34;;;;;;;14.60;9.00;;;4.20;99.90;;;;;;4988697;28;20642;-58
2022/02/15 00:30:59;;;;;;;16.17;9.10;;;4.20;99.90;;;;;;4989467;28;20177;-59
2022/02/15 00:33:25;;;;;;;14.67;9.07;;;4.20;99.90;;;;;;4989069;28;20219;-57
2022/02/15 00:35:51;;;;;;;15.13;9.50;;;4.20;99.90;;;;;;4988328;28;20212;-58
2022/02/15 00:38:16;;;;;;;18.23;9.03;;;4.20;99.90;;;;;;4983955;28;20181;-58
2022/02/15 00:40:42;;;;;;;15.03;8.33;;;4.20;99.90;;;;;;4989769;28;20208;-58
2022/02/15 00:43:08;;;;;;;17.57;9.83;;;4.20;99.90;;;;;;4985737;28;20196;-58
2022/02/15 00:45:33;;;;;;;14.07;9.70;;;4.10;99.90;;;;;;4990317;28;20197;-58
2022/02/15 00:47:59;;;;;;;13.33;8.77;;;4.10;99.90;;;;;;4993444;28;20173;-58
2022/02/15 00:50:24;;;;;;;12.17;8.47;;;4.10;99.90;;;;;;4984901;28;20192;-58
2022/02/15 00:52:50;;;;;;;16.03;8.60;;;4.10;99.90;;;;;;4990624;28;20212;-59
2022/02/15 00:55:16;;;;;;;15.63;9.10;;;4.10;99.90;;;;;;5000294;28;20587;-56
2022/02/15 00:57:42;;;;;;;12.93;8.53;;;4.10;99.90;;;;;;4995973;28;20277;-58
2022/02/15 01:00:10;;;;;;;15.07;8.30;;;4.00;99.90;;;;;;4988534;28;20687;-58
2022/02/15 01:02:36;;;;;;;18.80;9.40;;;4.00;99.90;;;;;;4981575;28;20912;-59
2022/02/15 01:05:03;;;;;;;16.10;10.10;;;4.00;99.90;;;;;;4988623;28;20440;-57
2022/02/15 01:07:28;;;;;;;17.00;9.20;;;3.90;99.90;;;;;;4989233;28;20408;-58
2022/02/15 01:09:54;;;;;;;12.90;9.23;;;3.90;99.90;;;;;;4989005;28;20409;-58
2022/02/15 01:12:20;;;;;;;17.17;9.60;;;3.90;99.90;;;;;;4985838;28;20173;-57
2022/02/15 01:14:45;;;;;;;17.33;9.90;;;3.90;99.90;;;;;;4988779;28;20252;-58
2022/02/15 01:17:11;;;;;;;14.70;8.80;;;4.00;99.90;;;;;;4988152;28;20181;-54
2022/02/15 01:19:37;;;;;;;17.40;9.90;;;4.00;99.90;;;;;;4989133;28;20176;-56
2022/02/15 01:22:04;;;;;;;17.30;9.73;;;4.00;99.90;;;;;;4987907;28;20495;-58
2022/02/15 01:24:31;;;;;;;18.13;11.07;;;4.00;99.90;;;;;;4989725;28;20173;-56
2022/02/15 01:26:57;;;;;;;15.37;9.07;;;3.90;99.90;;;;;;4989794;28;20941;-58
2022/02/15 01:29:23;;;;;;;16.00;9.33;;;3.90;99.90;;;;;;4988003;28;20504;-58
2022/02/15 01:31:49;;;;;;;15.43;9.30;;;3.90;99.90;;;;;;5001111;28;20435;-58
2022/02/15 01:34:15;;;;;;;14.60;9.10;;;3.90;99.90;;;;;;4997294;28;20455;-58
2022/02/15 01:36:41;;;;;;;15.27;8.77;;;3.90;99.90;;;;;;4999865;28;20235;-58
2022/02/15 01:39:06;;;;;;;16.43;8.87;;;3.80;99.90;;;;;;4991502;28;20173;-58
2022/02/15 01:41:32;;;;;;;15.13;8.90;;;3.80;99.90;;;;;;4991573;28;21116;-58
2022/02/15 01:43:58;;;;;;;12.10;8.83;;;3.80;99.90;;;;;;4991284;28;20260;-57
2022/02/15 01:46:23;;;;;;;14.47;7.80;;;3.70;99.90;;;;;;4986512;28;20701;-58
2022/02/15 01:48:49;;;;;;;16.80;8.80;;;3.70;99.90;;;;;;4988871;28;20193;-58
2022/02/15 01:51:15;;;;;;;16.93;8.60;;;3.80;99.90;;;;;;4985366;28;20207;-58
2022/02/15 01:53:42;;;;;;;13.20;8.60;;;3.80;99.90;;;;;;4992810;28;20676;-58
2022/02/15 01:56:10;;;;;;;14.00;8.60;;;3.80;99.90;;;;;;4993054;28;20448;-58
2022/02/15 01:58:36;;;;;;;15.13;8.33;;;3.80;99.90;;;;;;4990825;28;20435;-58
2022/02/15 02:01:02;;;;;;;15.03;8.97;;;3.80;99.90;;;;;;4987502;28;20482;-58
2022/02/15 02:03:28;;;;;;;12.93;8.00;;;3.80;99.90;;;;;;4984681;28;20429;-58
2022/02/15 02:05:55;;;;;;;15.37;8.70;;;3.80;99.90;;;;;;4986469;28;20842;-59
2022/02/15 02:08:27;;;;;;;13.70;8.70;;;3.80;99.90;;;;;;4987126;28;20181;-57
2022/02/15 02:10:54;;;;;;;14.90;9.07;;;3.80;99.90;;;;;;4990703;28;20469;-59
2022/02/15 02:13:20;;;;;;;15.20;9.20;;;3.80;99.90;;;;;;4991016;28;20439;-59
2022/02/15 02:15:47;;;;;;;13.17;8.30;;;3.80;99.90;;;;;;4995792;28;20441;-59
2022/02/15 02:18:14;;;;;;;16.97;9.53;;;3.80;99.90;;;;;;4993056;28;20436;-59
2022/02/15 02:20:40;;;;;;;17.53;9.33;;;3.80;99.90;;;;;;4990213;28;20448;-58
2022/02/15 02:23:09;;;;;;;14.67;8.87;;;3.80;99.90;;;;;;4992362;28;20446;-59
2022/02/15 02:25:35;;;;;;;17.93;9.50;;;3.80;99.90;;;;;;4999763;28;20448;-59
2022/02/15 02:28:02;;;;;;;16.40;10.00;;;3.80;99.90;;;;;;4991270;28;20972;-57
2022/02/15 02:30:28;;;;;;;17.07;9.73;;;3.80;99.90;;;;;;4987336;28;20227;-59
2022/02/15 02:32:53;;;;;;;17.10;9.90;;;3.80;99.90;;;;;;4990371;28;20447;-59
2022/02/15 02:35:20;;;;;;;14.73;9.03;;;3.80;99.90;;;;;;4998056;28;20461;-58
2022/02/15 02:37:46;;;;;;;13.87;8.83;;;3.80;99.90;;;;;;4987627;28;20208;-58
2022/02/15 02:40:12;;;;;;;17.00;9.77;;;3.80;99.90;;;;;;4988661;28;20460;-59
2022/02/15 02:42:40;;;;;;;15.13;9.40;;;3.80;99.90;;;;;;4991297;28;20231;-58
2022/02/15 02:45:12;;;;;;;13.93;8.90;;;3.80;99.90;;;;;;4989146;28;20968;-58
2022/02/15 02:47:43;;;;;;;15.30;9.30;;;3.80;99.90;;;;;;4971948;28;20402;-58
2022/02/15 02:50:08;;;;;;;15.33;9.80;;;3.80;99.90;;;;;;4988089;28;20441;-59
2022/02/15 02:52:34;;;;;;;14.40;9.17;;;3.80;99.90;;;;;;4995605;28;20624;-58
2022/02/15 02:55:00;;;;;;;22.60;11.20;;;3.80;99.90;;;;;;4988575;28;20185;-58
2022/02/15 02:57:26;;;;;;;18.50;11.20;;;3.70;99.90;;;;;;4992746;28;20177;-58
2022/02/15 02:59:51;;;;;;;16.57;9.67;;;3.70;99.90;;;;;;4989611;28;20180;-58
2022/02/15 03:02:17;;;;;;;13.63;9.00;;;3.80;99.90;;;;;;4991605;28;20232;-58
2022/02/15 03:04:44;;;;;;;17.30;10.37;;;3.80;99.90;;;;;;4990751;28;20448;-58
2022/02/15 03:07:10;;;;;;;16.10;9.60;;;3.70;99.90;;;;;;4989018;28;20173;-58
2022/02/15 03:09:36;;;;;;;15.73;9.83;;;3.80;99.90;;;;;;4982667;28;20817;-59
2022/02/15 03:12:03;;;;;;;15.43;9.90;;;3.80;99.90;;;;;;4987761;28;20430;-58
2022/02/15 03:14:29;;;;;;;15.80;9.20;;;3.80;99.90;;;;;;4982609;28;20434;-58
2022/02/15 03:16:55;;;;;;;19.37;10.70;;;3.80;99.90;;;;;;5001856;28;20839;-59
2022/02/15 03:19:21;;;;;;;17.17;9.80;;;3.80;99.90;;;;;;5010200;28;20259;-63
2022/02/15 03:21:46;;;;;;;22.90;11.50;;;3.70;99.90;;;;;;4992724;28;20555;-59
2022/02/15 03:24:12;;;;;;;21.80;9.90;;;3.70;99.90;;;;;;4983312;28;20204;-58
2022/02/15 03:26:38;;;;;;;18.70;10.13;;;3.70;99.90;;;;;;4975349;28;20209;-59
2022/02/15 03:29:05;;;;;;;15.27;10.03;;;3.70;99.90;;;;;;4988641;28;20200;-58
2022/02/15 03:31:31;;;;;;;16.70;10.53;;;3.70;99.90;;;;;;4990365;28;20609;-58
2022/02/15 03:33:56;;;;;;;21.60;11.60;;;3.70;99.90;;;;;;4992969;28;20434;-57
2022/02/15 03:36:23;;;;;;;18.77;11.17;;;3.80;99.90;;;;;;4999304;28;20984;-58
2022/02/15 03:38:49;;;;;;;19.10;10.87;;;3.70;99.90;;;;;;4981913;28;20212;-58
2022/02/15 03:43:59;;;;;;;20.50;10.90;;;3.80;99.90;;;;;;4988741;28;20423;-60
2022/02/15 03:46:25;;;;;;;17.67;10.63;;;3.80;99.90;;;;;;4984791;28;21024;-58
2022/02/15 03:48:51;;;;;;;21.00;11.33;;;3.80;99.90;;;;;;4988866;28;20169;-59
2022/02/15 03:51:18;;;;;;;18.23;11.13;;;3.70;99.90;;;;;;4988054;28;20165;-57
2022/02/15 03:53:43;;;;;;;18.00;11.33;;;3.80;99.90;;;;;;4999455;28;20459;-58
2022/02/15 03:56:10;;;;;;;22.37;11.83;;;3.80;99.90;;;;;;4991004;28;20638;-57
2022/02/15 03:58:36;;;;;;;18.37;11.07;;;3.80;99.90;;;;;;4990216;28;20565;-58
2022/02/15 04:01:02;;;;;;;17.77;10.77;;;3.80;99.90;;;;;;4983203;28;20456;-58
2022/02/15 04:03:28;;;;;;;19.87;11.70;;;3.80;99.90;;;;;;4989234;28;20461;-58
2022/02/15 04:05:54;;;;;;;18.93;11.10;;;3.80;99.90;;;;;;4984901;28;20456;-58
2022/02/15 04:08:22;;;;;;;19.83;10.73;;;3.80;99.90;;;;;;4987568;28;20192;-59
2022/02/15 04:10:48;;;;;;;20.77;12.00;;;3.80;99.90;;;;;;4990395;28;20428;-58
2022/02/15 04:13:14;;;;;;;21.23;12.17;;;3.80;99.90;;;;;;4990544;28;20416;-58
2022/02/15 04:15:40;;;;;;;18.77;11.10;;;3.80;99.90;;;;;;4994071;28;20468;-59
2022/02/15 04:18:05;;;;;;;18.37;10.97;;;3.80;99.90;;;;;;4990808;28;20515;-58
2022/02/15 04:20:31;;;;;;;15.87;10.27;;;3.80;99.90;;;;;;4982816;28;20513;-59
2022/02/15 04:22:57;;;;;;;21.00;12.43;;;3.80;99.90;;;;;;4989967;28;20708;-59
2022/02/15 04:25:23;;;;;;;21.30;12.10;;;3.80;99.90;;;;;;4989653;28;20232;-59
2022/02/15 04:27:48;;;;;;;27.60;15.97;;;3.80;99.90;;;;;;5005135;28;20537;-58
2022/02/15 04:30:14;;;;;;;25.47;14.00;;;3.80;99.90;;;;;;4994270;28;20363;-59
2022/02/15 04:32:40;;;;;;;22.80;12.93;;;3.80;99.90;;;;;;5007436;28;20176;-58
2022/02/15 04:35:06;;;;;;;20.07;12.10;;;3.90;99.90;;;;;;4986737;28;20291;-59
2022/02/15 04:37:32;;;;;;;18.10;11.23;;;3.80;99.90;;;;;;4982952;28;20200;-58
2022/02/15 04:39:58;;;;;;;21.27;12.43;;;3.80;99.90;;;;;;4985557;28;20913;-59
2022/02/15 04:42:24;;;;;;;18.73;11.27;;;3.90;99.90;;;;;;4986865;28;20978;-58
2022/02/15 04:44:50;;;;;;;19.47;11.70;;;3.90;99.90;;;;;;4987863;28;20178;-59
2022/02/15 04:47:16;;;;;;;21.57;12.20;;;3.90;99.90;;;;;;4997917;28;20427;-59
2022/02/15 04:49:41;;;;;;;21.70;12.80;;;3.80;99.90;;;;;;4997447;28;20175;-59
2022/02/15 04:52:07;;;;;;;21.27;12.30;;;3.80;99.90;;;;;;4988267;28;20440;-59
2022/02/15 04:54:33;;;;;;;19.50;12.10;;;3.90;99.90;;;;;;4992522;28;20264;-58
2022/02/15 04:56:59;;;;;;;19.90;11.93;;;3.80;99.90;;;;;;4989156;28;20200;-58
2022/02/15 04:59:24;;;;;;;20.80;11.50;;;3.80;99.90;;;;;;4984793;28;20550;-58
2022/02/15 05:01:50;;;;;;;21.80;12.00;;;3.80;99.90;;;;;;4981722;28;20671;-58
2022/02/15 05:07:00;;;;;;;19.37;12.00;;;3.80;99.90;;;;;;4981167;28;20188;-59
2022/02/15 05:09:27;;;;;;;22.20;12.47;;;3.90;99.90;;;;;;4982360;28;20560;-59
2022/02/15 05:11:53;;;;;;;18.97;12.20;;;3.90;99.90;;;;;;4981488;28;20513;-58
2022/02/15 05:14:18;;;;;;;20.70;12.13;;;3.90;99.90;;;;;;4977027;28;21054;-59
2022/02/15 05:16:44;;;;;;;21.00;12.40;;;3.90;99.90;;;;;;4980374;28;20208;-59
2022/02/15 05:19:10;;;;;;;33.47;16.67;;;3.90;99.90;;;;;;4971113;28;20699;-60
2022/02/15 05:21:35;;;;;;;21.30;12.97;;;3.90;99.90;;;;;;4995625;28;20197;-60
2022/02/15 05:24:01;;;;;;;21.57;11.77;;;3.90;99.90;;;;;;4988521;28;20671;-59
2022/02/15 05:26:27;;;;;;;22.27;13.07;;;3.80;99.90;;;;;;4981906;28;20259;-60
2022/02/15 05:28:52;;;;;;;18.93;11.57;;;3.80;99.90;;;;;;4977105;28;20187;-61
2022/02/15 05:31:18;;;;;;;23.00;13.17;;;3.80;99.90;;;;;;4984945;28;20201;-60
2022/02/15 05:33:44;;;;;;;20.70;11.83;;;3.80;99.90;;;;;;4987080;28;20181;-60
2022/02/15 05:36:09;;;;;;;21.80;12.17;;;3.80;99.90;;;;;;4978854;28;20219;-59
2022/02/15 05:38:35;;;;;;;20.57;11.73;;;3.80;99.90;;;;;;4985548;28;20196;-60
2022/02/15 05:41:01;;;;;;;16.10;10.37;;;3.80;99.90;;;;;;4984725;28;20316;-61
2022/02/15 05:43:26;;;;;;;14.80;10.23;;;3.80;99.90;;;;;;4988156;28;20181;-60
2022/02/15 05:45:52;;;;;;;18.70;11.27;;;3.80;99.90;;;;;;4984870;28;20216;-60
2022/02/15 05:48:18;;;;;;;17.50;11.67;;;3.80;99.90;;;;;;4984766;28;20447;-60
2022/02/15 05:50:50;;;;;;;16.33;10.47;;;3.90;99.90;;;;;;4988260;28;20191;-60
2022/02/15 05:53:27;;;;;;;17.33;11.00;;;3.80;99.90;;;;;;4982272;28;20194;-59
2022/02/15 05:55:55;;;;;;;17.20;10.63;;;3.80;99.90;;;;;;4986333;28;20459;-60
2022/02/15 05:58:22;;;;;;;18.73;10.40;;;3.80;99.90;;;;;;4985003;28;20440;-60
2022/02/15 06:00:48;;;;;;;19.57;11.63;;;3.80;99.90;;;;;;4982299;28;21042;-60
2022/02/15 06:05:59;;;;;;;17.03;10.80;;;3.80;99.90;;;;;;4980062;28;20547;-60
2022/02/15 06:08:25;;;;;;;15.13;10.10;;;3.90;99.90;;;;;;4985073;28;21026;-60
2022/02/15 06:10:51;;;;;;;17.27;10.60;;;3.90;99.90;;;;;;4982596;28;20189;-59
2022/02/15 06:13:18;;;;;;;14.93;9.53;;;3.90;99.90;;;;;;4978604;28;20184;-59
2022/02/15 06:15:44;;;;;;;16.37;10.43;;;3.90;99.90;;;;;;4975215;28;20456;-60
2022/02/15 06:18:10;;;;;;;17.13;10.03;;;3.90;99.90;;;;;;4980241;28;20463;-59
2022/02/15 06:20:36;;;;;;;16.10;10.40;;;3.90;99.90;;;;;;4987032;28;21027;-61
2022/02/15 06:23:02;;;;;;;17.47;11.43;;;3.90;99.90;;;;;;4986893;28;20528;-59
2022/02/15 06:25:27;;;;;;;16.53;11.00;;;3.90;99.90;;;;;;4985192;28;20228;-60
2022/02/15 06:27:53;;;;;;;14.37;10.13;;;3.90;99.90;;;;;;4980761;28;20946;-60
2022/02/15 06:30:19;;;;;;;18.57;11.23;;;3.80;99.90;;;;;;4982038;28;20307;-60
2022/02/15 06:32:44;;;;;;;16.43;9.83;;;3.80;99.90;;;;;;4983714;28;20181;-60
2022/02/15 06:35:11;;;;;;;18.73;10.50;;;3.80;99.90;;;;;;4977778;28;20712;-60
2022/02/15 06:37:41;;;;;;;14.03;8.90;;;3.80;99.90;;;;;;4979187;28;20184;-60
2022/02/15 06:40:07;;;;;;;16.03;9.87;;;3.80;99.90;;;;;;4980145;28;20436;-61
2022/02/15 06:42:33;;;;;;;15.10;9.13;;;3.80;99.90;;;;;;4979812;28;20460;-60
2022/02/15 06:44:59;;;;;;;16.00;9.60;;;3.90;99.90;;;;;;4980206;28;20471;-60
2022/02/15 06:47:25;;;;;;;15.67;9.40;;;3.90;99.90;;;;;;4981892;28;20428;-60
2022/02/15 06:49:51;;;;;;;13.77;9.00;;;3.90;99.90;;;;;;4978525;28;20441;-62
2022/02/15 06:52:17;;;;;;;15.07;9.40;;;3.90;99.90;;;;;;4981853;28;20184;-60
2022/02/15 06:54:42;;;;;;;15.03;10.10;;;3.90;99.90;;;;;;4990351;28;20181;-59
2022/02/15 06:57:08;;;;;;;14.57;9.23;;;3.90;99.90;;;;;;4985850;28;20580;-60
2022/02/15 06:59:34;;;;;;;12.47;8.50;;;3.90;99.90;;;;;;4981222;28;20193;-59
2022/02/15 07:02:00;;;;;;;13.97;9.23;;;3.90;99.90;;;;;;4983496;28;20298;-60
2022/02/15 07:04:25;;;;;;;17.43;10.03;;;3.90;99.90;;;;;;4986787;28;20682;-59
2022/02/15 07:06:51;;;;;;;16.30;8.50;;;3.90;99.90;;;;;;4982232;28;20212;-59
2022/02/15 07:09:17;;;;;;;17.90;9.17;;;3.90;99.90;;;;;;4988231;28;20189;-60
2022/02/15 07:11:42;;;;;;;22.60;12.10;;;3.90;99.90;;;;;;4982028;28;20561;-60
2022/02/15 07:14:08;;;;;;;18.37;11.77;;;3.90;99.90;;;;;;4988598;28;20250;-60
2022/02/15 07:16:35;;;;;;;22.83;10.03;;;4.00;99.90;;;;;;4982612;28;20346;-60
2022/02/15 07:19:02;;;;;;;15.77;9.50;;;4.00;99.90;;;;;;4980779;28;20436;-60
2022/02/15 07:21:27;;;;;;;17.43;10.07;;;4.00;99.90;;;;;;4979784;28;20623;-60
2022/02/15 07:23:55;;;;;;;17.33;9.50;;;4.00;99.90;;;;;;4980712;28;20463;-60
2022/02/15 07:26:21;;;;;;;17.53;10.70;;;4.00;99.90;;;;;;4985880;28;20197;-61
2022/02/15 07:28:46;;;;;;;17.13;9.57;;;4.00;99.90;;;;;;4983171;28;20807;-61
2022/02/15 07:31:14;;;;;;;20.20;10.57;;;4.10;99.90;;;;;;4991109;28;21173;-61
2022/02/15 07:33:40;;;;;;;14.20;9.20;;;4.10;99.90;;;;;;4991890;28;20183;-59
2022/02/15 07:36:05;;;;;;;17.50;10.43;;;4.10;99.90;;;;;;4991012;28;20466;-60
2022/02/15 07:38:31;;;;;;;16.37;9.27;;;4.10;99.90;;;;;;4988286;28;20409;-60
2022/02/15 07:40:57;;;;;;;15.33;8.90;;;4.10;99.90;;;;;;4982473;28;20282;-60
2022/02/15 07:43:25;;;;;;;16.07;10.10;;;4.10;99.90;;;;;;4980018;28;20564;-59
2022/02/15 07:45:51;;;;;;;15.77;9.40;;;4.10;99.90;;;;;;4971882;28;20201;-60
2022/02/15 07:48:17;;;;;;;13.67;8.90;;;4.10;99.90;;;;;;4980288;28;21117;-60
2022/02/15 07:50:42;;;;;;;16.60;10.60;;;4.10;99.90;;;;;;4982972;28;20436;-60
2022/02/15 07:53:08;;;;;;;14.37;8.60;;;4.20;99.90;;;;;;4987237;28;20553;-60
2022/02/15 07:55:34;;;;;;;16.13;9.50;;;4.20;99.90;;;;;;4981326;28;20703;-59
2022/02/15 07:57:59;;;;;;;15.70;9.77;;;4.20;99.90;;;;;;4980968;28;20701;-61
2022/02/15 08:00:26;;;;;;;13.23;8.63;;;4.20;99.90;;;;;;4978868;28;20193;-61
2022/02/15 08:02:52;;;;;;;12.73;8.30;;;4.20;99.90;;;;;;4980915;28;20184;-61
2022/02/15 08:05:20;;;;;;;13.33;8.43;;;4.20;99.90;;;;;;4979439;28;20507;-61
2022/02/15 08:07:49;;;;;;;17.77;10.00;;;4.30;99.90;;;;;;4977759;28;20437;-61
2022/02/15 08:10:18;;;;;;;16.53;9.00;;;4.40;99.90;;;;;;4997031;28;20467;-61
2022/02/15 08:12:48;;;;;;;16.03;9.50;;;4.40;99.90;;;;;;4975958;28;20501;-61
2022/02/15 08:15:17;;;;;;;16.00;9.93;;;4.40;99.90;;;;;;4979450;28;20929;-61
2022/02/15 08:17:42;;;;;;;15.97;8.80;;;4.40;99.90;;;;;;4976688;28;20482;-61
2022/02/15 08:20:09;;;;;;;15.23;9.53;;;4.50;99.90;;;;;;4977221;28;20468;-61
2022/02/15 08:22:35;;;;;;;13.27;7.87;;;4.50;99.90;;;;;;4973570;28;20268;-61
2022/02/15 08:25:00;;;;;;;15.97;9.00;;;4.50;99.90;;;;;;4979891;28;20460;-60
2022/02/15 08:27:26;;;;;;;13.10;8.43;;;4.40;99.90;;;;;;4977943;28;20272;-60
2022/02/15 08:29:52;;;;;;;11.40;7.77;;;4.40;99.90;;;;;;4981033;28;20179;-61
2022/02/15 08:32:17;;;;;;;18.30;10.10;;;4.30;99.90;;;;;;4982025;28;20184;-61
2022/02/15 08:34:43;;;;;;;14.30;9.00;;;4.30;99.90;;;;;;4985296;28;20185;-60
2022/02/15 08:37:09;;;;;;;19.40;9.97;;;4.30;99.90;;;;;;5028109;22;20612;-65
2022/02/15 08:39:34;;;;;;;18.20;9.50;;;4.40;99.90;;;;;;5011933;28;20234;-58
2022/02/15 08:42:04;;;;;;;11.10;7.57;;;4.40;99.90;;;;;;5005519;28;20213;-58
2022/02/15 08:44:32;;;;;;;13.17;8.77;;;4.50;99.90;;;;;;5008553;28;20221;-60
2022/02/15 08:46:58;;;;;;;13.43;8.60;;;4.50;99.90;;;;;;4992669;28;20538;-57
2022/02/15 08:49:23;;;;;;;11.83;7.90;;;4.60;99.90;;;;;;4992014;28;20420;-57
2022/02/15 08:51:49;;;;;;;13.70;8.07;;;4.70;99.90;;;;;;4988646;28;20623;-57
2022/02/15 08:54:14;;;;;;;12.37;7.53;;;4.70;99.90;;;;;;4996304;28;20190;-57
2022/02/15 08:56:40;;;;;;;10.77;6.70;;;4.80;99.90;;;;;;4991011;28;20207;-57
2022/02/15 08:59:06;;;;;;;12.10;8.00;;;4.90;99.90;;;;;;4986405;28;20263;-57
2022/02/15 09:01:33;;;;;;;12.10;6.77;;;4.90;99.90;;;;;;4981407;28;20519;-57
2022/02/15 09:03:58;;;;;;;15.00;7.70;;;5.00;99.90;;;;;;4999516;28;20367;-58
2022/02/15 09:06:24;;;;;;;9.60;5.83;;;5.10;99.90;;;;;;4985800;28;21033;-56
2022/02/15 09:08:49;;;;;;;9.10;6.17;;;5.10;99.90;;;;;;4987680;28;20187;-58
2022/02/15 09:11:16;;;;;;;9.50;5.80;;;5.20;99.90;;;;;;4980950;28;20230;-57
2022/02/15 09:13:42;;;;;;;6.73;5.23;;;5.20;99.90;;;;;;4989195;28;20209;-56
2022/02/15 09:16:08;;;;;;;8.43;5.60;;;5.30;99.90;;;;;;4988890;28;20533;-55
2022/02/15 09:18:34;;;;;;;7.90;4.67;;;5.40;99.90;;;;;;4991248;28;20173;-56
2022/02/15 09:21:00;;;;;;;5.20;3.90;;;5.40;99.90;;;;;;4988564;28;20463;-56
2022/02/15 09:23:25;;;;;;;8.63;4.43;;;5.40;99.90;;;;;;4988417;28;20174;-57
2022/02/15 09:25:51;;;;;;;5.83;3.93;;;5.30;99.90;;;;;;4988120;28;20629;-56
2022/02/15 09:28:17;;;;;;;5.40;4.63;;;5.30;99.90;;;;;;4987871;28;20242;-56
2022/02/15 09:30:42;;;;;;;5.87;4.20;;;5.30;99.90;;;;;;4989421;28;20169;-56
2022/02/15 09:33:08;;;;;;;6.40;4.37;;;5.30;99.90;;;;;;4988129;28;20240;-56
2022/02/15 09:35:34;;;;;;;7.97;4.27;;;5.30;99.90;;;;;;4985937;28;20556;-57
2022/02/15 09:37:59;;;;;;;4.90;3.83;;;5.20;99.90;;;;;;4986765;28;20197;-55
2022/02/15 09:40:25;;;;;;;4.53;3.47;;;5.20;99.90;;;;;;4994790;28;20428;-56
2022/02/15 09:42:51;;;;;;;4.63;3.43;;;5.20;99.90;;;;;;4995164;28;20196;-58
2022/02/15 09:45:17;;;;;;;4.20;3.20;;;5.20;99.90;;;;;;5006522;28;20236;-57
2022/02/15 09:47:44;;;;;;;5.07;3.60;;;5.20;99.90;;;;;;5013456;28;20428;-57
2022/02/15 09:50:10;;;;;;;5.03;3.43;;;5.20;99.90;;;;;;5015671;28;20238;-56
2022/02/15 09:52:36;;;;;;;4.57;2.97;;;5.20;99.90;;;;;;5019095;28;20508;-55
2022/02/15 09:55:03;;;;;;;2.93;2.67;;;5.30;99.90;;;;;;4991159;28;20802;-57
2022/02/15 09:57:28;;;;;;;3.37;2.43;;;5.30;99.90;;;;;;4990350;28;20697;-56
2022/02/15 09:59:55;;;;;;;2.33;2.13;;;5.40;99.90;;;;;;4988888;28;20463;-56
2022/02/15 10:02:23;;;;;;;4.70;2.80;;;5.40;99.90;;;;;;4996453;28;20208;-58
2022/02/15 10:04:53;;;;;;;2.80;2.10;;;5.40;99.90;;;;;;5007878;28;20703;-58
2022/02/15 10:07:18;;;;;;;2.17;1.90;;;5.30;99.90;;;;;;5005913;28;20523;-58
2022/02/15 10:09:51;;;;;;;3.10;2.10;;;5.20;99.90;;;;;;5010012;28;20444;-56
2022/02/15 10:12:18;;;;;;;2.50;2.20;;;5.10;99.90;;;;;;4994457;28;20252;-56
2022/02/15 10:14:46;;;;;;;2.83;1.97;;;5.10;99.90;;;;;;4985787;28;20435;-55
2022/02/15 10:17:16;;;;;;;1.90;1.80;;;5.00;99.90;;;;;;4988186;28;20788;-55
2022/02/15 10:19:43;;;;;;;2.37;1.57;;;5.00;99.90;;;;;;4987677;28;20440;-56
2022/02/15 10:22:09;;;;;;;1.60;1.50;;;5.00;99.90;;;;;;4989323;28;20472;-57
2022/02/15 10:24:37;;;;;;;1.60;1.50;;;5.00;99.90;;;;;;4989506;28;20774;-57
2022/02/15 10:27:04;;;;;;;1.70;1.60;;;5.00;99.90;;;;;;4989086;28;20514;-56
2022/02/15 10:29:33;;;;;;;1.80;1.70;;;5.00;99.90;;;;;;4986136;28;20445;-57
2022/02/15 10:32:01;;;;;;;3.00;1.57;;;5.00;99.90;;;;;;4992546;28;20436;-57
2022/02/15 10:34:27;;;;;;;3.30;1.80;;;5.00;99.90;;;;;;4989632;28;20515;-57
2022/02/15 10:37:05;;;;;;;2.30;2.13;;;5.10;99.90;;;;;;4994009;28;20561;-57
2022/02/15 10:39:50;;;;;;;3.57;1.90;;;5.10;99.90;;;;;;4992153;28;20442;-57
2022/02/15 10:42:18;;;;;;;1.70;1.60;;;5.20;99.90;;;;;;4989723;28;20563;-58
2022/02/15 10:45:10;;;;;;;3.27;1.73;;;5.40;99.90;;;;;;4990600;28;20439;-56
2022/02/15 10:47:39;;;;;;;2.13;1.97;;;5.50;99.90;;;;;;4984346;28;20533;-58
2022/02/15 10:50:07;;;;;;;1.83;1.73;;;5.60;99.90;;;;;;4988700;28;20929;-57
2022/02/15 10:52:34;;;;;;;2.10;1.90;;;5.70;99.90;;;;;;4989881;28;20960;-57
2022/02/15 10:55:00;;;;;;;2.30;1.90;;;5.80;99.90;;;;;;4991783;28;20458;-58
2022/02/15 10:57:27;;;;;;;9.93;2.17;;;5.80;99.90;;;;;;5000866;28;20447;-58
2022/02/15 10:59:54;;;;;;;2.70;2.23;;;5.90;99.90;;;;;;4998637;28;20224;-57
2022/02/15 11:02:23;;;;;;;2.77;1.60;;;5.80;99.90;;;;;;4995960;28;20468;-57
2022/02/15 11:04:51;;;;;;;1.90;1.80;;;5.80;99.90;;;;;;4987955;28;20548;-57
2022/02/15 11:07:19;;;;;;;2.07;1.87;;;5.80;99.90;;;;;;4993947;28;20479;-58
2022/02/15 11:10:05;;;;;;;5.83;2.00;;;5.80;94.10;;;;;;4996720;28;20462;-57
2022/02/15 11:12:51;;;;;;;2.23;2.00;;;5.90;90.60;;;;;;4987952;28;21924;-58
2022/02/15 11:15:32;;;;;;;2.67;1.93;;;5.80;90.90;;;;;;5008841;28;20443;-58
2022/02/15 11:18:04;;;;;;;2.00;1.80;;;5.80;92.00;;;;;;5001067;28;20487;-57
2022/02/15 11:20:50;;;;;;;3.20;1.87;;;5.90;90.60;;;;;;5002059;28;20431;-56
2022/02/15 11:23:22;;;;;;;2.20;1.97;;;6.00;87.60;;;;;;5002254;28;20519;-57
2022/02/15 11:25:49;;;;;;;5.30;1.70;;;6.00;86.90;;;;;;5000273;28;20452;-57
2022/02/15 11:28:20;;;;;;;2.30;1.93;;;6.10;88.10;;;;;;4994075;28;20440;-57
2022/02/15 11:30:45;;;;;;;2.27;1.93;;;6.20;89.20;;;;;;4990886;28;20424;-58
2022/02/15 11:33:16;;;;;;;1.87;1.77;;;6.50;90.50;;;;;;4988678;28;20506;-56
2022/02/15 11:36:19;;;;;;;4.13;2.43;;;6.70;83.50;;;;;;4983897;28;20205;-57
2022/02/15 11:38:56;;;;;;;2.30;1.97;;;7.10;85.40;;;;;;4977083;28;20999;-59
2022/02/15 11:41:24;;;;;;;4.00;2.70;;;7.40;74.30;;;;;;4985770;28;20464;-59
2022/02/15 11:43:58;;;;;;;2.40;1.93;;;7.40;71.00;;;;;;4987254;28;20424;-58
2022/02/15 11:46:43;;;;;;;2.70;2.13;;;7.40;69.00;;;;;;4989918;28;20498;-57
2022/02/15 11:49:18;;;;;;;3.30;2.50;;;7.30;66.50;;;;;;4983501;28;20805;-56
2022/02/15 11:51:51;;;;;;;2.50;2.10;;;7.10;67.40;;;;;;4984236;28;20855;-58
2022/02/15 11:54:21;;;;;;;3.83;2.30;;;7.00;70.30;;;;;;4981204;28;20913;-57
2022/02/15 11:56:52;;;;;;;2.50;2.00;;;6.90;70.00;;;;;;4984164;28;20535;-57
2022/02/15 11:59:25;;;;;;;6.00;2.70;;;6.80;68.50;;;;;;4971253;28;20440;-55
2022/02/15 12:01:57;;;;;;;2.57;2.30;;;6.60;69.50;;;;;;4978607;28;20870;-56
2022/02/15 12:04:22;;;;;;;4.00;2.80;;;6.60;72.40;;;;;;4983372;28;20436;-57
2022/02/15 12:06:48;;;;;;;2.60;2.40;;;6.50;73.40;;;;;;4978248;28;20664;-57
2022/02/15 12:09:15;;;;;;;2.87;2.60;;;6.50;75.20;;;;;;4979618;28;20192;-60
2022/02/15 12:11:46;;;;;;;5.40;2.57;;;7.10;73.00;;;;;;4980608;28;20191;-59
2022/02/15 12:14:12;;;;;;;5.00;2.33;;;8.00;68.10;;;;;;4981646;28;20436;-59
2022/02/15 12:16:54;;;;;;;3.07;2.23;;;8.40;63.10;;;;;;4976001;28;20456;-59
2022/02/15 12:19:31;;;;;;;3.00;2.53;;;8.30;61.70;;;;;;4979486;28;20545;-60
2022/02/15 12:22:14;;;;;;;2.87;2.57;;;8.00;60.70;;;;;;4979593;28;20463;-59
2022/02/15 12:24:39;;;;;;;2.60;2.40;;;7.60;61.80;;;;;;4980382;28;20420;-60
2022/02/15 12:27:07;;;;;;;2.83;2.33;;;7.30;63.30;;;;;;4985731;28;20458;-60
2022/02/15 12:29:34;;;;;;;2.47;2.27;;;7.10;65.30;;;;;;4982818;28;20203;-60
2022/02/15 12:32:02;;;;;;;2.60;2.27;;;7.00;65.40;;;;;;4984431;28;20481;-60
2022/02/15 12:34:28;;;;;;;2.50;2.30;;;6.80;66.50;;;;;;4982300;28;20428;-58
2022/02/15 12:36:54;;;;;;;3.10;2.80;;;6.80;68.60;;;;;;4976081;28;21053;-60
2022/02/15 12:39:20;;;;;;;3.60;2.80;;;6.80;69.10;;;;;;4982311;28;20432;-60
2022/02/15 12:41:47;;;;;;;3.60;2.47;;;6.80;68.40;;;;;;4981586;28;20468;-60
2022/02/15 12:44:14;;;;;;;2.73;2.50;;;7.00;68.40;;;;;;4983183;28;20436;-59
2022/02/15 12:46:40;;;;;;;2.33;2.13;;;7.30;66.30;;;;;;4983743;28;20523;-59
2022/02/15 12:49:09;;;;;;;3.40;2.60;;;7.40;65.90;;;;;;4980410;28;20527;-60
2022/02/15 12:51:38;;;;;;;3.57;2.27;;;7.30;65.50;;;;;;4976091;28;20455;-60
2022/02/15 12:54:06;;;;;;;2.70;2.40;;;7.30;65.30;;;;;;4978305;28;20436;-61
2022/02/15 12:56:34;;;;;;;2.10;1.80;;;7.40;65.30;;;;;;4983562;28;20452;-59